Time;durP1;ratioP1;P1;durP2;ratioP2;P2;SDS_P1;SDS_P2;PMS_P1;PMS_P2;Temp;Humidity;BMP_temperature;BMP_pressure;BME280_temperature;BME280_humidity;BME280_pressure;Samples;Min_cycle;Max_cycle;Signal;HPM_P1;HPM_P2
2023/12/08 00:01:17;;;;;;;227.48;134.60;;;;;;;;;;6094360;23;20338;-81
2023/12/08 00:03:42;;;;;;;180.85;113.13;;;;;;;;;;6097235;23;20002;-81
2023/12/08 00:06:08;;;;;;;168.65;104.13;;;;;;;;;;6098524;23;20033;-83
2023/12/08 00:08:34;;;;;;;155.48;91.45;;;;;;;;;;6095067;23;20435;-81
2023/12/08 00:10:59;;;;;;;144.30;84.78;;;;;;;;;;6095235;23;19998;-81
2023/12/08 00:13:24;;;;;;;148.63;90.72;;;;;;;;;;6093751;23;20077;-81
2023/12/08 00:15:50;;;;;;;127.63;78.22;;;;;;;;;;6094589;23;20019;-82
2023/12/08 00:18:15;;;;;;;144.85;85.15;;;;;;;;;;6093857;23;20398;-82
2023/12/08 00:20:40;;;;;;;129.70;73.57;;;;;;;;;;6094942;23;20005;-81
2023/12/08 00:23:06;;;;;;;184.55;103.07;;;;;;;;;;6094432;23;20407;-82
2023/12/08 00:25:31;;;;;;;149.52;83.22;;;;;;;;;;6119747;23;20013;-81
2023/12/08 00:27:57;;;;;;;152.63;89.57;;;;;;;;;;6120482;23;19994;-81
2023/12/08 00:30:22;;;;;;;155.52;89.85;;;;;;;;;;6094635;23;20002;-81
2023/12/08 00:32:47;;;;;;;170.80;98.68;;;;;;;;;;6094017;23;20030;-82
2023/12/08 00:35:13;;;;;;;123.20;77.93;;;;;;;;;;6094387;23;20037;-82
2023/12/08 00:37:38;;;;;;;193.90;109.90;;;;;;;;;;6096181;23;20024;-81
2023/12/08 00:40:05;;;;;;;135.48;79.05;;;;;;;;;;6095690;23;20009;-82
2023/12/08 00:42:30;;;;;;;118.47;72.32;;;;;;;;;;6095621;23;20052;-81
2023/12/08 00:44:56;;;;;;;106.78;62.45;;;;;;;;;;6095353;23;20010;-80
2023/12/08 00:47:21;;;;;;;83.47;50.33;;;;;;;;;;6095873;23;20009;-82
2023/12/08 00:49:47;;;;;;;74.40;47.03;;;;;;;;;;6095573;23;20081;-84
2023/12/08 00:52:12;;;;;;;68.07;45.10;;;;;;;;;;6095463;23;20341;-82
2023/12/08 00:54:37;;;;;;;73.00;45.15;;;;;;;;;;6095488;23;20093;-82
2023/12/08 00:57:03;;;;;;;98.72;58.80;;;;;;;;;;6095775;23;20008;-80
2023/12/08 00:59:28;;;;;;;86.15;50.50;;;;;;;;;;6121270;23;20001;-82
2023/12/08 01:01:53;;;;;;;82.57;54.00;;;;;;;;;;6095727;23;20006;-81
2023/12/08 01:04:18;;;;;;;105.55;63.55;;;;;;;;;;6095227;23;20006;-81
2023/12/08 01:06:44;;;;;;;83.45;52.20;;;;;;;;;;6095933;23;20005;-81
2023/12/08 01:09:09;;;;;;;104.00;64.85;;;;;;;;;;6095172;23;20009;-81
2023/12/08 01:11:35;;;;;;;90.15;60.80;;;;;;;;;;6095351;23;20029;-81
2023/12/08 01:14:00;;;;;;;116.40;72.57;;;;;;;;;;6095194;23;20002;-81
2023/12/08 01:16:26;;;;;;;113.15;75.50;;;;;;;;;;6095366;23;20002;-82
2023/12/08 01:18:51;;;;;;;82.90;50.42;;;;;;;;;;6095375;23;20013;-81
2023/12/08 01:21:16;;;;;;;106.15;61.03;;;;;;;;;;6095752;23;20431;-81
2023/12/08 01:23:41;;;;;;;77.82;46.90;;;;;;;;;;6094776;23;20032;-81
2023/12/08 01:26:08;;;;;;;62.70;36.70;;;;;;;;;;6095145;23;19998;-82
2023/12/08 01:28:34;;;;;;;73.35;40.15;;;;;;;;;;6094770;23;20010;-82
2023/12/08 01:30:59;;;;;;;63.97;42.10;;;;;;;;;;6095551;23;20085;-80
2023/12/08 01:33:25;;;;;;;61.15;38.63;;;;;;;;;;6121044;23;20001;-81
2023/12/08 01:35:50;;;;;;;62.97;41.58;;;;;;;;;;6094969;23;20009;-81
2023/12/08 01:38:15;;;;;;;66.07;48.10;;;;;;;;;;6095159;23;20029;-80
2023/12/08 01:40:41;;;;;;;57.33;37.70;;;;;;;;;;6121605;23;20010;-81
2023/12/08 01:43:13;;;;;;;52.78;35.05;;;;;;;;;;6121041;23;20029;-80
2023/12/08 01:45:41;;;;;;;71.57;45.22;;;;;;;;;;6094840;23;20312;-82
2023/12/08 01:48:07;;;;;;;76.93;46.30;;;;;;;;;;6094996;23;20442;-81
2023/12/08 01:50:33;;;;;;;76.57;49.28;;;;;;;;;;6121570;23;19990;-81
2023/12/08 01:52:58;;;;;;;73.72;41.15;;;;;;;;;;6095513;23;20002;-81
2023/12/08 01:55:24;;;;;;;39.75;27.10;;;;;;;;;;6120282;23;20061;-81
2023/12/08 01:57:50;;;;;;;52.28;35.38;;;;;;;;;;6119994;23;20628;-83
2023/12/08 02:00:15;;;;;;;83.75;45.03;;;;;;;;;;6094509;23;20368;-82
2023/12/08 02:02:41;;;;;;;70.32;38.78;;;;;;;;;;6094538;23;20005;-81
2023/12/08 02:05:07;;;;;;;108.35;56.38;;;;;;;;;;6094783;23;20002;-81
2023/12/08 02:07:33;;;;;;;89.28;54.90;;;;;;;;;;6120842;23;20396;-81
2023/12/08 02:09:58;;;;;;;81.65;45.65;;;;;;;;;;6121032;23;19998;-82
2023/12/08 02:12:24;;;;;;;147.30;93.22;;;;;;;;;;6120846;23;20029;-81
2023/12/08 02:14:50;;;;;;;73.38;47.83;;;;;;;;;;6120947;23;20005;-81
2023/12/08 02:17:28;;;;;;;74.13;46.80;;;;;;;;;;6094767;23;20080;-81
2023/12/08 02:19:53;;;;;;;56.72;32.83;;;;;;;;;;6120940;23;20017;-83
2023/12/08 02:22:21;;;;;;;46.17;31.17;;;;;;;;;;6094953;23;20006;-81
2023/12/08 02:24:46;;;;;;;66.78;41.05;;;;;;;;;;6094395;23;20013;-82
2023/12/08 02:27:12;;;;;;;75.53;46.70;;;;;;;;;;6121817;23;20450;-82
2023/12/08 02:29:38;;;;;;;60.55;37.90;;;;;;;;;;6122456;23;20005;-81
2023/12/08 02:32:22;;;;;;;67.15;40.45;;;;;;;;;;6123692;23;20052;-81
2023/12/08 02:34:49;;;;;;;152.98;57.03;;;;;;;;;;6097213;23;20008;-81
2023/12/08 02:37:15;;;;;;;67.57;45.92;;;;;;;;;;6095222;23;20009;-83
2023/12/08 02:39:40;;;;;;;59.03;40.33;;;;;;;;;;6095013;23;20080;-82
2023/12/08 02:42:07;;;;;;;61.83;37.97;;;;;;;;;;6095161;23;20022;-81
2023/12/08 02:44:32;;;;;;;57.05;35.10;;;;;;;;;;6120598;23;20001;-81
2023/12/08 02:46:57;;;;;;;55.78;32.03;;;;;;;;;;6094878;23;20029;-82
2023/12/08 02:49:23;;;;;;;77.32;45.63;;;;;;;;;;6120986;23;20403;-81
2023/12/08 02:51:48;;;;;;;77.60;41.10;;;;;;;;;;6118590;23;19998;-83
2023/12/08 02:54:14;;;;;;;134.05;62.15;;;;;;;;;;6120569;23;20002;-82
2023/12/08 02:56:39;;;;;;;137.63;61.47;;;;;;;;;;6095272;23;20049;-81
2023/12/08 02:59:04;;;;;;;111.28;51.90;;;;;;;;;;6094848;23;20446;-81
2023/12/08 03:01:30;;;;;;;75.82;46.65;;;;;;;;;;6095063;23;20505;-82
2023/12/08 03:03:55;;;;;;;68.90;44.80;;;;;;;;;;6094766;23;20033;-82
2023/12/08 03:06:20;;;;;;;65.20;40.47;;;;;;;;;;6120990;23;20001;-82
2023/12/08 03:08:46;;;;;;;60.72;39.22;;;;;;;;;;6120823;23;20084;-81
2023/12/08 03:11:11;;;;;;;66.18;41.17;;;;;;;;;;6095030;23;19997;-81
2023/12/08 03:13:36;;;;;;;74.65;43.45;;;;;;;;;;6095200;23;20076;-83
2023/12/08 03:16:02;;;;;;;74.72;43.50;;;;;;;;;;6094781;23;19998;-82
2023/12/08 03:18:27;;;;;;;69.65;44.58;;;;;;;;;;6094360;23;20190;-81
2023/12/08 03:20:53;;;;;;;70.35;41.55;;;;;;;;;;6120604;23;20315;-81
2023/12/08 03:23:19;;;;;;;75.30;42.92;;;;;;;;;;6095155;23;20005;-82
2023/12/08 03:25:45;;;;;;;74.15;43.63;;;;;;;;;;6093959;23;20008;-81
2023/12/08 03:28:10;;;;;;;77.50;44.72;;;;;;;;;;6094807;23;20072;-83
2023/12/08 03:30:35;;;;;;;67.20;42.80;;;;;;;;;;6096727;23;20076;-82
2023/12/08 03:33:01;;;;;;;61.67;38.28;;;;;;;;;;6094292;23;20036;-81
2023/12/08 03:35:26;;;;;;;60.70;36.58;;;;;;;;;;6094225;23;20005;-81
2023/12/08 03:37:52;;;;;;;52.60;35.80;;;;;;;;;;6094311;23;20002;-81
2023/12/08 03:40:17;;;;;;;48.95;32.40;;;;;;;;;;6120245;23;20316;-81
2023/12/08 03:42:42;;;;;;;44.30;29.73;;;;;;;;;;6120455;23;20075;-82
2023/12/08 03:45:08;;;;;;;47.95;29.88;;;;;;;;;;6094475;23;20010;-82
2023/12/08 03:47:33;;;;;;;41.70;26.25;;;;;;;;;;6094473;23;20002;-82
2023/12/08 03:49:58;;;;;;;48.35;30.63;;;;;;;;;;6119894;23;20008;-82
2023/12/08 03:52:23;;;;;;;52.92;31.50;;;;;;;;;;6094882;23;20002;-82
2023/12/08 03:54:49;;;;;;;50.22;31.75;;;;;;;;;;6119718;23;20311;-82
2023/12/08 03:57:14;;;;;;;53.28;32.65;;;;;;;;;;6094516;23;20002;-81
2023/12/08 03:59:43;;;;;;;71.75;40.85;;;;;;;;;;6120361;23;19998;-82
2023/12/08 04:02:08;;;;;;;57.27;34.47;;;;;;;;;;6094340;23;20026;-81
2023/12/08 04:04:33;;;;;;;64.00;37.25;;;;;;;;;;6093359;23;20465;-80
2023/12/08 04:06:59;;;;;;;63.72;35.97;;;;;;;;;;6094437;23;20085;-82
2023/12/08 04:09:24;;;;;;;57.88;35.45;;;;;;;;;;6119962;23;20081;-82
2023/12/08 04:11:49;;;;;;;63.95;37.58;;;;;;;;;;6095968;23;20022;-83
2023/12/08 04:14:15;;;;;;;57.15;35.65;;;;;;;;;;6121567;23;20006;-80
2023/12/08 04:16:40;;;;;;;49.03;30.58;;;;;;;;;;6096063;23;20026;-82
2023/12/08 04:19:06;;;;;;;60.08;34.08;;;;;;;;;;6121997;23;20081;-81
2023/12/08 04:21:31;;;;;;;61.92;39.28;;;;;;;;;;6095907;23;20382;-81
2023/12/08 04:23:56;;;;;;;67.30;39.70;;;;;;;;;;6121884;23;20695;-81
2023/12/08 04:26:24;;;;;;;96.13;52.17;;;;;;;;;;6096024;23;20327;-81
2023/12/08 04:28:51;;;;;;;73.97;43.85;;;;;;;;;;6121673;23;20449;-80
2023/12/08 04:31:16;;;;;;;66.70;39.58;;;;;;;;;;6095933;23;19994;-81
2023/12/08 04:33:42;;;;;;;72.95;41.33;;;;;;;;;;6095623;23;19998;-81
2023/12/08 04:36:07;;;;;;;64.60;42.83;;;;;;;;;;6095860;23;20009;-81
2023/12/08 04:38:32;;;;;;;68.00;41.38;;;;;;;;;;6089637;23;20021;-81
2023/12/08 04:40:58;;;;;;;60.83;36.08;;;;;;;;;;6060191;23;20090;-81
2023/12/08 04:43:23;;;;;;;43.67;28.23;;;;;;;;;;6036649;23;20066;-81
2023/12/08 04:45:48;;;;;;;51.35;33.67;;;;;;;;;;6036430;23;20007;-80
2023/12/08 04:48:14;;;;;;;48.85;32.60;;;;;;;;;;6060800;23;20002;-81
2023/12/08 04:50:39;;;;;;;46.05;31.08;;;;;;;;;;6038378;23;20423;-81
2023/12/08 04:53:04;;;;;;;47.90;32.13;;;;;;;;;;6039935;23;20486;-81
2023/12/08 04:55:30;;;;;;;46.53;32.13;;;;;;;;;;6062597;23;20035;-84
2023/12/08 04:57:55;;;;;;;43.42;30.10;;;;;;;;;;6062107;23;20006;-81
2023/12/08 05:00:20;;;;;;;46.85;31.02;;;;;;;;;;6060762;23;20317;-82
2023/12/08 05:02:47;;;;;;;46.47;33.72;;;;;;;;;;6061062;23;20490;-81
2023/12/08 05:05:12;;;;;;;49.47;36.28;;;;;;;;;;6060219;23;20005;-82
2023/12/08 05:07:37;;;;;;;48.25;35.30;;;;;;;;;;6036731;23;20075;-83
2023/12/08 05:10:03;;;;;;;48.47;34.72;;;;;;;;;;6060335;23;20030;-82
2023/12/08 05:12:28;;;;;;;66.88;41.17;;;;;;;;;;6083416;23;20490;-80
2023/12/08 05:14:53;;;;;;;66.10;39.42;;;;;;;;;;6090782;23;20010;-81
2023/12/08 05:17:19;;;;;;;70.32;42.67;;;;;;;;;;6092206;23;20407;-82
2023/12/08 05:19:44;;;;;;;77.78;45.75;;;;;;;;;;6090491;23;20049;-82
2023/12/08 05:22:09;;;;;;;81.22;52.22;;;;;;;;;;6092688;23;20027;-81
2023/12/08 05:24:35;;;;;;;64.97;40.97;;;;;;;;;;6089845;23;20010;-80
2023/12/08 05:27:00;;;;;;;57.50;41.00;;;;;;;;;;6091213;23;20349;-81
2023/12/08 05:29:26;;;;;;;72.50;46.20;;;;;;;;;;6091994;23;19990;-81
2023/12/08 05:31:51;;;;;;;59.17;36.55;;;;;;;;;;6092429;23;19994;-81
2023/12/08 05:34:16;;;;;;;64.75;39.97;;;;;;;;;;6092433;23;20002;-80
2023/12/08 05:36:41;;;;;;;70.95;43.58;;;;;;;;;;6090049;23;20006;-81
2023/12/08 05:39:07;;;;;;;72.13;45.08;;;;;;;;;;6090446;23;20006;-81
2023/12/08 05:41:32;;;;;;;66.43;45.60;;;;;;;;;;6090327;23;20073;-82
2023/12/08 05:43:57;;;;;;;69.97;45.80;;;;;;;;;;6090441;23;20054;-81
2023/12/08 05:46:23;;;;;;;70.18;45.28;;;;;;;;;;6090172;23;20036;-81
2023/12/08 05:48:49;;;;;;;68.80;44.92;;;;;;;;;;6092252;23;19997;-81
2023/12/08 05:51:14;;;;;;;69.30;45.53;;;;;;;;;;6090403;23;19998;-81
2023/12/08 05:53:39;;;;;;;64.22;43.63;;;;;;;;;;6090571;23;20003;-81
2023/12/08 05:56:05;;;;;;;58.70;40.60;;;;;;;;;;6089523;23;20518;-81
2023/12/08 05:58:30;;;;;;;55.03;38.35;;;;;;;;;;6090111;23;20002;-81
2023/12/08 06:00:56;;;;;;;73.97;44.40;;;;;;;;;;6089259;23;20002;-81
2023/12/08 06:03:21;;;;;;;94.05;54.92;;;;;;;;;;6090394;23;20045;-81
2023/12/08 06:05:47;;;;;;;168.57;91.80;;;;;;;;;;6090145;23;20134;-81
2023/12/08 06:08:13;;;;;;;92.55;56.08;;;;;;;;;;6089259;23;19999;-82
2023/12/08 06:10:38;;;;;;;492.33;173.20;;;;;;;;;;6089927;23;20006;-80
2023/12/08 06:13:03;;;;;;;144.07;104.88;;;;;;;;;;6091579;23;20345;-81
2023/12/08 06:15:29;;;;;;;73.75;48.33;;;;;;;;;;6089607;23;20010;-81
2023/12/08 06:17:54;;;;;;;60.00;42.33;;;;;;;;;;6089949;23;20016;-81
2023/12/08 06:20:19;;;;;;;62.85;45.25;;;;;;;;;;6090121;23;20026;-81
2023/12/08 06:22:45;;;;;;;60.10;42.55;;;;;;;;;;6090609;23;20006;-81
2023/12/08 06:25:10;;;;;;;74.95;49.45;;;;;;;;;;6089806;23;20009;-81
2023/12/08 06:27:36;;;;;;;115.97;84.60;;;;;;;;;;6089656;23;20273;-81
2023/12/08 06:30:01;;;;;;;83.75;53.92;;;;;;;;;;6091339;23;20062;-82
2023/12/08 06:32:28;;;;;;;67.43;47.15;;;;;;;;;;6091060;23;19998;-82
2023/12/08 06:34:56;;;;;;;74.97;49.83;;;;;;;;;;6089374;23;20391;-82
2023/12/08 06:37:22;;;;;;;109.23;58.33;;;;;;;;;;6091490;23;20006;-82
2023/12/08 06:39:47;;;;;;;175.45;94.97;;;;;;;;;;6089656;23;20776;-82
2023/12/08 06:42:12;;;;;;;278.30;122.40;;;;;;;;;;6089617;23;20518;-79
2023/12/08 06:44:39;;;;;;;152.50;68.25;;;;;;;;;;6089956;23;20006;-80
2023/12/08 06:47:04;;;;;;;312.10;115.63;;;;;;;;;;6088807;23;20006;-80
2023/12/08 06:49:30;;;;;;;106.47;54.63;;;;;;;;;;6093829;23;19999;-81
2023/12/08 06:51:55;;;;;;;91.45;54.55;;;;;;;;;;6089135;23;20375;-80
2023/12/08 06:54:21;;;;;;;78.72;50.13;;;;;;;;;;6089477;23;20009;-82
2023/12/08 06:56:46;;;;;;;87.35;56.63;;;;;;;;;;6089238;23;19999;-81
2023/12/08 06:59:12;;;;;;;129.02;87.60;;;;;;;;;;6091429;23;20037;-81
2023/12/08 07:01:37;;;;;;;262.20;166.77;;;;;;;;;;6091250;23;20025;-82
2023/12/08 07:04:03;;;;;;;129.52;89.18;;;;;;;;;;6089356;23;20006;-81
2023/12/08 07:06:29;;;;;;;96.57;70.20;;;;;;;;;;6089322;23;19994;-81
2023/12/08 07:08:54;;;;;;;96.72;70.82;;;;;;;;;;6089919;23;20410;-81
2023/12/08 07:11:20;;;;;;;560.15;318.67;;;;;;;;;;6090603;23;20423;-81
2023/12/08 07:13:45;;;;;;;118.70;76.28;;;;;;;;;;6089885;23;20428;-81
2023/12/08 07:16:11;;;;;;;79.65;49.60;;;;;;;;;;6091429;23;19998;-81
2023/12/08 07:18:37;;;;;;;97.50;59.47;;;;;;;;;;6092188;23;20335;-83
2023/12/08 07:21:03;;;;;;;93.82;59.47;;;;;;;;;;6092526;23;19991;-83
2023/12/08 07:23:28;;;;;;;102.63;69.63;;;;;;;;;;6091680;23;20001;-81
2023/12/08 07:25:53;;;;;;;62.70;42.88;;;;;;;;;;6088607;23;20013;-82
2023/12/08 07:28:19;;;;;;;66.13;45.08;;;;;;;;;;6090902;23;20086;-82
2023/12/08 07:30:44;;;;;;;55.40;37.65;;;;;;;;;;6091100;23;20486;-81
2023/12/08 07:33:09;;;;;;;63.00;41.85;;;;;;;;;;6089524;23;20002;-81
2023/12/08 07:35:35;;;;;;;82.72;56.30;;;;;;;;;;6091700;23;20085;-81
2023/12/08 07:38:00;;;;;;;60.33;41.92;;;;;;;;;;6089672;23;20470;-81
2023/12/08 07:40:26;;;;;;;131.52;97.40;;;;;;;;;;6089628;23;20066;-82
2023/12/08 07:42:51;;;;;;;109.68;70.10;;;;;;;;;;6088985;23;20045;-82
2023/12/08 07:45:17;;;;;;;172.30;95.25;;;;;;;;;;6089999;23;20378;-81
2023/12/08 07:47:43;;;;;;;173.45;99.05;;;;;;;;;;6093267;23;19999;-81
2023/12/08 07:50:09;;;;;;;120.95;76.50;;;;;;;;;;6091543;23;20562;-83
2023/12/08 07:52:34;;;;;;;137.15;83.25;;;;;;;;;;6091687;23;20013;-83
2023/12/08 07:54:59;;;;;;;109.13;74.43;;;;;;;;;;6092673;23;20092;-82
2023/12/08 07:57:24;;;;;;;79.65;53.53;;;;;;;;;;6091030;23;20085;-82
2023/12/08 07:59:51;;;;;;;61.65;44.55;;;;;;;;;;6093072;23;20061;-82
2023/12/08 08:02:17;;;;;;;78.03;49.00;;;;;;;;;;6092772;23;20029;-81
2023/12/08 08:04:42;;;;;;;69.63;49.00;;;;;;;;;;6092605;23;20002;-81
2023/12/08 08:07:07;;;;;;;79.72;54.05;;;;;;;;;;6091245;23;20407;-81
2023/12/08 08:09:32;;;;;;;81.95;57.95;;;;;;;;;;6091169;23;20006;-83
2023/12/08 08:11:58;;;;;;;92.10;60.58;;;;;;;;;;6091239;23;20033;-81
2023/12/08 08:14:23;;;;;;;94.78;58.42;;;;;;;;;;6090634;23;20053;-81
2023/12/08 08:16:48;;;;;;;82.55;57.38;;;;;;;;;;6090920;23;20002;-81
2023/12/08 08:19:14;;;;;;;93.45;69.57;;;;;;;;;;6091322;23;20410;-82
2023/12/08 08:21:39;;;;;;;80.35;53.45;;;;;;;;;;6090947;23;20450;-82
2023/12/08 08:24:04;;;;;;;139.07;79.90;;;;;;;;;;6091102;23;20362;-84
2023/12/08 08:26:30;;;;;;;76.10;48.55;;;;;;;;;;6092799;23;19994;-83
2023/12/08 08:28:55;;;;;;;80.70;51.55;;;;;;;;;;6091259;23;20403;-81
2023/12/08 08:31:20;;;;;;;101.05;65.22;;;;;;;;;;6090577;23;20037;-81
2023/12/08 08:33:46;;;;;;;81.03;56.80;;;;;;;;;;6091534;23;20081;-83
2023/12/08 08:36:11;;;;;;;65.45;45.92;;;;;;;;;;6092301;23;20006;-81
2023/12/08 08:38:37;;;;;;;56.53;36.83;;;;;;;;;;6090081;23;19998;-82
2023/12/08 08:41:03;;;;;;;67.40;48.08;;;;;;;;;;6093675;23;20332;-84
2023/12/08 08:43:28;;;;;;;54.47;39.70;;;;;;;;;;6121574;23;20048;-81
2023/12/08 08:45:54;;;;;;;70.65;56.33;;;;;;;;;;6121468;23;20013;-82
2023/12/08 08:48:19;;;;;;;79.47;54.88;;;;;;;;;;6095202;23;20069;-82
2023/12/08 08:50:44;;;;;;;67.40;48.15;;;;;;;;;;6092051;23;20002;-82
2023/12/08 08:53:10;;;;;;;63.22;45.45;;;;;;;;;;6121753;23;20378;-83
2023/12/08 08:55:35;;;;;;;78.15;54.55;;;;;;;;;;6120962;23;20478;-81
2023/12/08 08:58:00;;;;;;;64.63;43.35;;;;;;;;;;6121051;23;20049;-82
2023/12/08 09:00:27;;;;;;;57.45;38.47;;;;;;;;;;6121915;23;20005;-83
2023/12/08 09:02:52;;;;;;;62.92;43.88;;;;;;;;;;6095137;23;20069;-81
2023/12/08 09:05:18;;;;;;;63.42;41.38;;;;;;;;;;6095001;23;20013;-82
2023/12/08 09:07:43;;;;;;;139.05;68.05;;;;;;;;;;6095194;23;20169;-81
2023/12/08 09:10:09;;;;;;;71.82;46.28;;;;;;;;;;6094933;23;19998;-82
2023/12/08 09:12:36;;;;;;;59.20;40.10;;;;;;;;;;6094939;23;20002;-83
2023/12/08 09:15:01;;;;;;;131.20;77.97;;;;;;;;;;6121218;23;20002;-83
2023/12/08 09:17:26;;;;;;;108.90;62.88;;;;;;;;;;6121439;23;20355;-81
2023/12/08 09:19:52;;;;;;;161.30;88.22;;;;;;;;;;6121235;23;20006;-82
2023/12/08 09:22:17;;;;;;;78.15;48.03;;;;;;;;;;6093494;23;20029;-83
2023/12/08 09:24:42;;;;;;;82.20;50.75;;;;;;;;;;6095310;23;20022;-81
2023/12/08 09:27:08;;;;;;;88.40;54.78;;;;;;;;;;6095123;23;19998;-80
2023/12/08 09:29:33;;;;;;;84.70;52.10;;;;;;;;;;6121121;23;20009;-82
2023/12/08 09:31:59;;;;;;;56.05;36.88;;;;;;;;;;6095224;23;20002;-83
2023/12/08 09:34:24;;;;;;;90.10;54.50;;;;;;;;;;6094592;23;20085;-83
2023/12/08 09:36:49;;;;;;;71.55;45.60;;;;;;;;;;6089910;23;20081;-81
2023/12/08 09:39:15;;;;;;;64.68;41.35;;;;;;;;;;6093842;23;20488;-81
2023/12/08 09:41:40;;;;;;;71.00;44.97;;;;;;;;;;6121028;23;20033;-82
2023/12/08 09:44:13;;;;;;;61.03;40.58;;;;;;;;;;6106289;23;20070;-81
2023/12/08 09:46:45;;;;;;;68.22;47.92;;;;;;;;;;6097933;23;20002;-82
2023/12/08 09:49:21;;;;;;;57.22;38.53;;;;;;;;;;6091173;23;20355;-82
2023/12/08 09:51:47;;;;;;;69.97;46.90;;;;;;;;;;6091544;23;20442;-80
2023/12/08 09:54:13;;;;;;;67.20;45.30;;;;;;;;;;6118596;23;20013;-82
2023/12/08 09:56:38;;;;;;;66.40;47.25;;;;;;;;;;6091337;23;20009;-81
2023/12/08 09:59:04;;;;;;;81.72;56.70;;;;;;;;;;6118349;23;20477;-81
2023/12/08 10:01:30;;;;;;;69.97;44.47;;;;;;;;;;6091177;23;20009;-81
2023/12/08 10:03:55;;;;;;;75.32;53.08;;;;;;;;;;6118325;23;19998;-82
2023/12/08 10:06:22;;;;;;;142.52;103.45;;;;;;;;;;6091830;23;20012;-81
2023/12/08 10:08:48;;;;;;;83.25;56.30;;;;;;;;;;6117360;23;19998;-83
2023/12/08 10:11:15;;;;;;;76.10;42.05;;;;;;;;;;6094985;23;20002;-83
2023/12/08 10:13:42;;;;;;;67.78;41.08;;;;;;;;;;6059191;23;20431;-83
2023/12/08 10:16:07;;;;;;;80.53;50.17;;;;;;;;;;6057987;23;20010;-82
2023/12/08 10:18:34;;;;;;;106.20;73.80;;;;;;;;;;6059629;23;20074;-89
2023/12/08 10:21:16;;;;;;;81.63;52.33;;;;;;;;;;6061639;23;20021;-91
2023/12/08 10:23:42;;;;;;;105.65;67.03;;;;;;;;;;6036254;23;20007;-91
2023/12/08 10:26:08;;;;;;;86.20;51.60;;;;;;;;;;6040778;23;20103;-91
2023/12/08 10:28:34;;;;;;;66.40;43.50;;;;;;;;;;6039043;23;20066;-89
2023/12/08 10:30:59;;;;;;;67.32;49.35;;;;;;;;;;6038129;23;20007;-89
2023/12/08 10:33:25;;;;;;;67.60;44.10;;;;;;;;;;6037675;23;19999;-89
2023/12/08 10:35:51;;;;;;;67.70;46.25;;;;;;;;;;6037663;23;20014;-89
2023/12/08 10:38:17;;;;;;;96.35;67.30;;;;;;;;;;6037868;23;20006;-89
2023/12/08 10:40:49;;;;;;;72.20;49.92;;;;;;;;;;6037528;23;20550;-89
2023/12/08 10:43:22;;;;;;;170.35;123.15;;;;;;;;;;6061855;23;20018;-90
2023/12/08 10:45:49;;;;;;;39.00;30.58;;;;;;;;;;6094907;23;20006;-88
2023/12/08 10:48:14;;;;;;;147.90;115.93;;;;;;;;;;6096511;23;20089;-90
2023/12/08 10:50:39;;;;;;;94.07;74.22;;;;;;;;;;6096941;23;20084;-89
2023/12/08 10:53:05;;;;;;;107.53;84.32;;;;;;;;;;6096351;23;19997;-89
2023/12/08 10:55:31;;;;;;;73.10;48.25;;;;;;;;;;6096486;23;20008;-89
2023/12/08 10:57:56;;;;;;;73.03;45.88;;;;;;;;;;6096696;23;20029;-89
2023/12/08 11:00:24;;;;;;;68.72;44.20;;;;;;;;;;6096778;23;20025;-89
2023/12/08 11:02:49;;;;;;;74.72;50.08;;;;;;;;;;6097097;23;20006;-88
2023/12/08 11:05:18;;;;;;;95.35;63.15;;;;;;;;;;6096544;23;20030;-88
2023/12/08 11:07:45;;;;;;;65.25;47.22;;;;;;;;;;6123158;23;20072;-89
2023/12/08 11:10:12;;;;;;;79.70;52.17;;;;;;;;;;6096495;23;20057;-88
2023/12/08 11:12:45;;;;;;;85.38;50.38;;;;;;;;;;6096891;23;20120;-91
2023/12/08 11:15:16;;;;;;;84.32;48.83;;;;;;;;;;6097360;23;20097;-89
2023/12/08 11:17:46;;;;;;;110.45;55.40;;;;;;;;;;6096886;23;20086;-90
2023/12/08 11:20:11;;;;;;;95.20;50.10;;;;;;;;;;6096928;23;20001;-90
2023/12/08 11:22:38;;;;;;;74.63;46.63;;;;;;;;;;6097111;23;20001;-91
2023/12/08 11:25:06;;;;;;;76.57;49.33;;;;;;;;;;6097065;23;20434;-90
2023/12/08 11:27:49;;;;;;;89.88;58.13;;;;;;;;;;6122503;23;20049;-89
2023/12/08 11:30:33;;;;;;;87.13;52.20;;;;;;;;;;6097747;23;20034;-90
2023/12/08 11:33:18;;;;;;;70.20;45.35;;;;;;;;;;6097838;23;19998;-89
2023/12/08 11:35:48;;;;;;;95.90;64.72;;;;;;;;;;5956764;24;20179;-92
2023/12/08 11:38:25;;;;;;;91.03;80.72;;;;;;;;;;5953813;24;20016;-90
2023/12/08 11:40:54;;;;;;;64.20;47.40;;;;;;;;;;5953121;24;20008;-90
2023/12/08 11:43:20;;;;;;;55.85;45.25;;;;;;;;;;5953638;24;20035;-90
2023/12/08 11:45:47;;;;;;;50.88;37.22;;;;;;;;;;5954003;24;20016;-90
2023/12/08 11:48:14;;;;;;;56.45;41.47;;;;;;;;;;5952565;24;20056;-86
2023/12/08 11:50:39;;;;;;;54.33;36.95;;;;;;;;;;5952280;24;19997;-86
2023/12/08 11:53:05;;;;;;;52.72;37.88;;;;;;;;;;5951793;24;20011;-88
2023/12/08 11:55:30;;;;;;;58.78;47.42;;;;;;;;;;5952095;24;20005;-88
2023/12/08 11:57:56;;;;;;;39.80;28.50;;;;;;;;;;5952259;24;20009;-86
2023/12/08 12:00:23;;;;;;;48.63;35.60;;;;;;;;;;5951919;24;20008;-87
2023/12/08 12:02:50;;;;;;;48.90;33.22;;;;;;;;;;5952749;24;20064;-85
2023/12/08 12:05:16;;;;;;;57.97;38.83;;;;;;;;;;5952305;24;20008;-86
2023/12/08 12:07:45;;;;;;;126.90;85.85;;;;;;;;;;5955997;24;20000;-87
2023/12/08 12:10:11;;;;;;;64.05;40.42;;;;;;;;;;5957763;24;20000;-87
2023/12/08 12:12:40;;;;;;;76.13;50.97;;;;;;;;;;6023971;23;19994;-86
2023/12/08 12:15:06;;;;;;;51.63;34.47;;;;;;;;;;6110390;23;20061;-86
2023/12/08 12:17:32;;;;;;;59.80;37.70;;;;;;;;;;6122611;23;20069;-88
2023/12/08 12:19:57;;;;;;;83.97;50.90;;;;;;;;;;6096561;23;20022;-88
2023/12/08 12:22:24;;;;;;;76.03;40.40;;;;;;;;;;6096300;23;20057;-86
2023/12/08 12:24:49;;;;;;;73.35;38.30;;;;;;;;;;6096027;23;20010;-87
2023/12/08 12:27:15;;;;;;;53.10;34.70;;;;;;;;;;6095957;23;20037;-87
2023/12/08 12:29:43;;;;;;;59.33;37.10;;;;;;;;;;6095506;23;19997;-83
2023/12/08 12:32:09;;;;;;;45.47;31.92;;;;;;;;;;6096282;23;20005;-85
2023/12/08 12:34:38;;;;;;;45.67;34.08;;;;;;;;;;6095891;23;19998;-83
2023/12/08 12:37:08;;;;;;;40.30;29.25;;;;;;;;;;6096463;23;20006;-84
2023/12/08 12:39:34;;;;;;;51.50;36.50;;;;;;;;;;6096594;23;20002;-83
2023/12/08 12:42:00;;;;;;;292.20;104.32;;;;;;;;;;6095514;23;20017;-83
2023/12/08 12:44:57;;;;;;;93.47;49.80;;;;;;;;;;6096635;23;20115;-83
2023/12/08 12:47:27;;;;;;;196.25;86.78;;;;;;;;;;5951984;24;20071;-82
2023/12/08 12:50:00;;;;;;;159.05;71.03;;;;;;;;;;5952649;24;20000;-82
2023/12/08 12:52:26;;;;;;;114.40;53.47;;;;;;;;;;5951428;24;20004;-83
2023/12/08 12:54:54;;;;;;;127.43;60.33;;;;;;;;;;5952507;24;20350;-83
2023/12/08 12:57:21;;;;;;;70.70;44.97;;;;;;;;;;5951273;24;20004;-83
2023/12/08 12:59:51;;;;;;;75.72;48.15;;;;;;;;;;5952513;24;20004;-83
2023/12/08 13:02:23;;;;;;;111.82;68.38;;;;;;;;;;5951098;24;20595;-83
2023/12/08 13:04:50;;;;;;;103.65;64.15;;;;;;;;;;5929618;24;20044;-82
2023/12/08 13:07:15;;;;;;;113.53;67.03;;;;;;;;;;5974333;24;20038;-83
2023/12/08 13:09:41;;;;;;;120.80;70.68;;;;;;;;;;5974639;24;20000;-83
2023/12/08 13:12:07;;;;;;;123.07;64.75;;;;;;;;;;5951408;24;20475;-84
2023/12/08 13:14:33;;;;;;;121.03;65.85;;;;;;;;;;5951248;24;20068;-82
2023/12/08 13:16:59;;;;;;;102.05;59.90;;;;;;;;;;5951055;24;20399;-82
2023/12/08 13:19:25;;;;;;;106.72;60.28;;;;;;;;;;5950515;24;20012;-83
2023/12/08 13:21:51;;;;;;;111.00;61.53;;;;;;;;;;5955363;23;20056;-83
2023/12/08 13:24:16;;;;;;;164.73;94.82;;;;;;;;;;6087666;23;20443;-83
2023/12/08 13:26:41;;;;;;;153.25;89.38;;;;;;;;;;6092729;23;20456;-84
2023/12/08 13:29:06;;;;;;;171.93;106.35;;;;;;;;;;6094378;23;20045;-81
2023/12/08 13:31:32;;;;;;;133.93;80.80;;;;;;;;;;6121193;23;19998;-83
2023/12/08 13:33:58;;;;;;;249.98;148.07;;;;;;;;;;6095292;23;20002;-83
2023/12/08 13:36:23;;;;;;;200.70;126.32;;;;;;;;;;6121180;23;20453;-82
2023/12/08 13:38:49;;;;;;;146.82;90.55;;;;;;;;;;6096942;23;20002;-83
2023/12/08 13:41:15;;;;;;;146.82;89.47;;;;;;;;;;6097927;23;20013;-83
2023/12/08 13:43:40;;;;;;;127.55;79.45;;;;;;;;;;6122900;23;19998;-82
2023/12/08 13:46:06;;;;;;;156.20;98.97;;;;;;;;;;6095259;23;20014;-82
2023/12/08 13:48:31;;;;;;;86.90;59.33;;;;;;;;;;6122875;23;20002;-83
2023/12/08 13:50:56;;;;;;;152.75;96.03;;;;;;;;;;6096353;23;20363;-83
2023/12/08 13:53:22;;;;;;;313.60;147.13;;;;;;;;;;6095821;23;20430;-81
2023/12/08 13:55:47;;;;;;;356.92;171.07;;;;;;;;;;6095089;23;20009;-84
2023/12/08 13:58:13;;;;;;;277.40;125.78;;;;;;;;;;6091198;23;20010;-84
2023/12/08 14:00:38;;;;;;;416.13;183.57;;;;;;;;;;6092464;23;20006;-83
2023/12/08 14:03:05;;;;;;;341.63;153.77;;;;;;;;;;6093499;23;20019;-81
2023/12/08 14:05:32;;;;;;;200.65;106.38;;;;;;;;;;6092385;23;20001;-82
2023/12/08 14:07:57;;;;;;;188.75;104.10;;;;;;;;;;6066782;23;20006;-82